Flight Track Log - Related Links

Times and Time Zones

All times are in EDT time to prevent confusion due to time zone crossing. See the N140TS flight status page for this flight to view local times or setup timezone preferences in your user account.

Time Position Orientation Groundspeed Altitude Reporting Facility
EDT Latitude Longitude Course Direction KTS MPH feet Rate Location/Type
Mon 02:29:53 PM 32.8769 -96.8931 318° Northwest 207 238 2,400  Level FAA TRACON SMA TRACON (SMA)
Mon 02:30:35 PM 32.9100 -96.9281 352° North 264 304 4,300 3,333 Climbing FAA TRACON SMA TRACON (SMA)
Mon 02:31:14 PM 32.9572 -96.9356 45° Northeast 253 291 6,900 2,051 Climbing FAA TRACON SMA TRACON (SMA)
Mon 02:31:54 PM 32.9903 -96.8961 106° East 263 303 7,000 900 Climbing FAA TRACON SMA TRACON (SMA)
Mon 02:32:34 PM 32.9744 -96.8297 126° Southeast 325 374 8,100 2,025 Climbing FAA TRACON SMA TRACON (SMA)
Mon 02:33:14 PM 32.9394 -96.7731 114° Southeast 349 402 9,700 2,582 Climbing FAA TRACON SMA TRACON (SMA)
Mon 02:33:53 PM 32.9119 -96.6986 115° Southeast 357 411 11,500 2,444 Climbing FAA TRACON SMA TRACON (SMA)
Mon 02:34:35 PM 32.8856 -96.6303 115° Southeast 371 427 13,000 2,370 Climbing FAA TRACON SMA TRACON (SMA)
Mon 02:35:14 PM 32.8547 -96.5514 107° East 381 438 14,700 2,530 Climbing FAA TRACON SMA TRACON (SMA)
Mon 02:35:58 PM 32.8331 -96.4683 103° East 381 438 16,500 2,325 Climbing FAA TRACON SMA TRACON (SMA)
Mon 02:36:34 PM 32.8181 -96.3933 104° East 380 437 17,800 2,368 Climbing FAA TRACON SMA TRACON (SMA)
Mon 02:37:14 PM 32.7997 -96.3089 105° East 383 441 19,500 2,475 Climbing FAA TRACON SMA TRACON (SMA)
Mon 02:37:54 PM 32.7811 -96.2239 106° East 383 441 21,100 2,074 Climbing FAA TRACON SMA TRACON (SMA)
Mon 02:38:35 PM 32.7633 -96.1478 106° East 389 448 22,300 1,259 Climbing FAA TRACON SMA TRACON (SMA)
Mon 02:39:15 PM 32.7417 -96.0578 104° East 415 478 22,800 532 Climbing FAA TRACON SMA TRACON (SMA)
Mon 02:39:54 PM 32.7214 -95.9625 105° East 434 499 23,000 152 Climbing FAA TRACON SMA TRACON (SMA)
Mon 02:40:34 PM 32.7042 -95.8872 110° East 439 505 23,000  Level FAA TRACON SMA TRACON (SMA)
Mon 02:41:36 PM 32.6617 -95.7453 105° East 436 502 23,000  Level Fort Worth Center
Mon 02:42:36 PM 32.6283 -95.6003 104° East 448 516 23,000  Level Fort Worth Center
Mon 02:43:36 PM 32.5947 -95.4433 108° East 448 516 23,000  Level Fort Worth Center
Mon 02:44:36 PM 32.5569 -95.3061 107° East 443 510 23,000  Level Fort Worth Center
Mon 02:45:36 PM 32.5256 -95.1836 107° East 437 503 23,000  Level Fort Worth Center
Mon 02:46:36 PM 32.4897 -95.0489 105° East 437 503 23,000  Level Fort Worth Center
Mon 02:47:36 PM 32.4578 -94.9119 107° East 432 497 23,000  Level Fort Worth Center
Mon 02:48:36 PM 32.4217 -94.7750 113° Southeast 432 497 23,000  Level Fort Worth Center
Mon 02:49:36 PM 32.3706 -94.6292 117° Southeast 437 503 23,000  Level Fort Worth Center
Mon 02:50:36 PM 32.3200 -94.5125 115° Southeast 442 509 23,000  Level Fort Worth Center
Mon 02:51:36 PM 32.2622 -94.3669 116° Southeast 442 509 23,000  Level Fort Worth Center
Mon 02:52:36 PM 32.2133 -94.2483 116° Southeast 442 509 23,000  Level Fort Worth Center
Mon 02:53:36 PM 32.1556 -94.1081 116° Southeast 442 509 23,000  Level Fort Worth Center
Mon 02:54:36 PM 32.0997 -93.9753 117° Southeast 442 509 23,000 -115 Level Fort Worth Center
Mon 02:56:12 PM 32.0156 -93.7803 115° Southeast 437 503 22,700 -846 Descending Houston Center
Mon 02:57:12 PM 31.9633 -93.6494 116° Southeast 437 503 20,800 -2,000 Descending Houston Center
Mon 02:57:42 PM 31.9331 -93.5756 113° Southeast 434 499 19,700 -1,800 Descending Houston Center
Mon 02:58:12 PM 31.9131 -93.5214 119° Southeast 432 497 19,000 -1,770 Descending Houston Center
Mon 02:58:43 PM 31.8786 -93.4475 116° Southeast 436 502 17,900 -1,696 Descending Houston Center
Mon 02:59:44 PM 31.8258 -93.3194 116° Southeast 434 499 16,400 -1,636 Descending Houston Center
Mon 03:00:44 PM 31.7772 -93.2014 118° Southeast 418 481 14,600 -1,736 Descending Houston Center
Mon 03:01:45 PM 31.7264 -93.0883 116° Southeast 396 456 12,900 -1,770 Descending Houston Center
Mon 03:02:46 PM 31.6775 -92.9683 117° Southeast 389 448 11,000 -1,785 Descending Houston Center
Mon 03:03:46 PM 31.6286 -92.8556 116° Southeast 385 443 9,300 -1,636 Descending Houston Center
Mon 03:04:47 PM 31.5836 -92.7478 118° Southeast 377 434 7,700 -1,670 Descending Houston Center
Mon 03:05:41 PM 31.5425 -92.6572 114° Southeast 354 407 6,100 -1,571 Descending Houston Center
Mon 03:06:11 PM 31.5303 -92.6253 125° Southeast 348 400 5,500 -1,180 Descending Houston Center
Mon 03:06:42 PM 31.5014 -92.5764 125° Southeast 302 348 4,900 -1,161 Descending Houston Center

Login

Don't have an account? Register now (free) for customized features, flight alerts, and more!